Time;durP1;ratioP1;P1;durP2;ratioP2;P2;SDS_P1;SDS_P2;PMS_P1;PMS_P2;Temp;Humidity;BMP_temperature;BMP_pressure;BME280_temperature;BME280_humidity;BME280_pressure;Samples;Min_cycle;Max_cycle;Signal;HPM_P1;HPM_P2
2021/11/06 00:01:25;;;;;;;29.70;10.67;;;;;;;4.93;100.00;101701.47;6157076;23;20534;-73
2021/11/06 00:03:53;;;;;;;32.03;10.97;;;;;;;4.86;100.00;101703.09;6157352;23;20520;-73
2021/11/06 00:06:20;;;;;;;32.57;11.23;;;;;;;4.77;100.00;101707.25;6157011;23;20287;-72
2021/11/06 00:08:46;;;;;;;30.37;11.00;;;;;;;4.71;100.00;101706.34;6156528;23;20181;-73
2021/11/06 00:11:13;;;;;;;31.37;10.57;;;;;;;4.65;100.00;101701.06;6157250;23;20183;-73
2021/11/06 00:13:39;;;;;;;27.00;10.30;;;;;;;4.64;100.00;101706.19;6157505;23;20171;-73
2021/11/06 00:16:06;;;;;;;25.83;10.53;;;;;;;4.59;100.00;101707.84;6157080;23;20295;-74
2021/11/06 00:18:32;;;;;;;28.93;11.00;;;;;;;4.54;100.00;101705.19;6147567;23;20192;-73
2021/11/06 00:21:00;;;;;;;27.83;10.67;;;;;;;4.51;100.00;101702.56;6157178;23;20173;-74
2021/11/06 00:23:26;;;;;;;26.27;10.23;;;;;;;4.48;100.00;101705.94;6157314;23;20183;-73
2021/11/06 00:25:53;;;;;;;28.23;10.33;;;;;;;4.44;100.00;101705.88;6157387;23;20619;-73
2021/11/06 00:28:19;;;;;;;26.50;10.53;;;;;;;4.41;100.00;101711.84;6157465;23;20495;-72
2021/11/06 00:30:46;;;;;;;25.20;11.00;;;;;;;4.36;100.00;101709.22;6155748;23;20182;-73
2021/11/06 00:33:12;;;;;;;24.27;10.57;;;;;;;4.33;100.00;101714.31;6156125;23;20204;-73
2021/11/06 00:35:39;;;;;;;26.07;10.47;;;;;;;4.23;100.00;101719.31;6156817;23;20197;-73
2021/11/06 00:38:06;;;;;;;25.90;9.77;;;;;;;4.17;100.00;101720.06;6157017;23;20185;-74
2021/11/06 00:40:33;;;;;;;25.33;9.93;;;;;;;4.18;100.00;101717.50;6146907;23;20181;-74
2021/11/06 00:43:00;;;;;;;28.97;10.67;;;;;;;4.18;100.00;101717.50;6157530;23;20174;-73
2021/11/06 00:45:26;;;;;;;26.97;10.43;;;;;;;4.15;100.00;101722.63;6156561;23;20540;-73
2021/11/06 00:47:53;;;;;;;33.40;11.03;;;;;;;4.19;100.00;101723.53;6157363;23;20183;-73
2021/11/06 00:50:19;;;;;;;32.40;11.50;;;;;;;4.23;100.00;101720.16;6156601;23;20497;-73
2021/11/06 00:52:47;;;;;;;30.93;11.37;;;;;;;4.23;100.00;101722.75;6156189;23;20187;-74
2021/11/06 00:55:17;;;;;;;28.60;10.70;;;;;;;4.21;100.00;101721.84;6156034;23;20193;-73
2021/11/06 00:57:44;;;;;;;30.90;10.40;;;;;;;4.18;100.00;101720.06;6157395;23;20539;-73
2021/11/06 01:00:14;;;;;;;33.27;11.87;;;;;;;4.17;100.00;101720.06;6157125;23;20584;-72
2021/11/06 01:02:40;;;;;;;36.53;11.53;;;;;;;4.22;100.00;101725.28;6156827;23;20647;-73
2021/11/06 01:05:09;;;;;;;31.07;10.93;;;;;;;4.20;100.00;101714.94;6156441;23;20607;-72
2021/11/06 01:07:36;;;;;;;32.00;12.07;;;;;;;4.21;100.00;101714.13;6156707;23;20180;-74
2021/11/06 01:10:04;;;;;;;34.30;11.13;;;;;;;4.20;100.00;101719.25;6157108;23;20267;-74
2021/11/06 01:12:31;;;;;;;32.87;11.67;;;;;;;4.26;100.00;101729.69;6156952;23;20175;-73
2021/11/06 01:14:58;;;;;;;40.17;13.03;;;;;;;4.27;100.00;101723.66;6156258;23;20200;-73
2021/11/06 01:17:25;;;;;;;27.33;11.47;;;;;;;4.23;100.00;101724.47;6157243;23;20177;-73
2021/11/06 01:19:51;;;;;;;31.50;11.83;;;;;;;4.22;100.00;101725.28;6158559;23;20177;-73
2021/11/06 01:22:18;;;;;;;30.67;12.03;;;;;;;4.28;100.00;101735.75;6159056;23;20174;-73
2021/11/06 01:24:44;;;;;;;34.73;12.40;;;;;;;4.33;100.00;101728.94;6158880;23;20292;-73
2021/11/06 01:27:11;;;;;;;40.50;11.90;;;;;;;4.44;100.00;101729.13;6122402;23;20172;-73
2021/11/06 01:29:39;;;;;;;38.37;12.43;;;;;;;4.50;100.00;101736.97;6158874;23;20177;-74
2021/11/06 01:32:07;;;;;;;31.80;12.20;;;;;;;4.55;100.00;101732.75;6158594;23;20179;-72
2021/11/06 01:34:35;;;;;;;36.63;13.53;;;;;;;4.58;100.00;101732.81;6158744;23;20199;-72
2021/11/06 01:37:03;;;;;;;33.83;12.63;;;;;;;4.61;100.00;101738.03;6157927;23;20188;-74
2021/11/06 01:39:30;;;;;;;40.87;11.90;;;;;;;4.65;100.00;101737.22;6122113;23;20191;-74
2021/11/06 01:41:56;;;;;;;41.73;12.90;;;;;;;4.68;100.00;101739.00;6158190;23;20283;-73
2021/11/06 01:44:23;;;;;;;46.30;13.20;;;;;;;4.71;100.00;101745.09;6158251;23;20830;-73
2021/11/06 01:46:51;;;;;;;36.67;12.80;;;;;;;4.72;100.00;101745.94;6157972;23;20168;-73
2021/11/06 01:49:20;;;;;;;38.70;12.30;;;;;;;4.73;100.00;101745.09;6157936;23;20177;-73
2021/11/06 01:51:46;;;;;;;36.63;12.73;;;;;;;4.78;100.00;101750.34;6157947;23;20676;-74
2021/11/06 01:54:13;;;;;;;34.07;13.00;;;;;;;4.78;100.00;101755.50;6158251;23;20175;-73
2021/11/06 01:56:39;;;;;;;34.57;11.77;;;;;;;4.80;100.00;101754.69;6158724;23;20188;-73
2021/11/06 01:59:06;;;;;;;41.77;13.07;;;;;;;4.81;100.00;101759.00;6158333;23;20177;-74
2021/11/06 02:01:32;;;;;;;38.73;13.40;;;;;;;4.82;100.00;101760.75;6158399;23;20512;-73
2021/11/06 02:04:00;;;;;;;36.37;12.17;;;;;;;4.84;100.00;101761.66;6158103;23;20176;-74
2021/11/06 02:06:26;;;;;;;45.07;12.03;;;;;;;4.86;100.00;101751.34;6147969;23;20671;-73
2021/11/06 02:08:53;;;;;;;35.47;12.13;;;;;;;4.84;100.00;101753.88;6157854;23;20179;-74
2021/11/06 02:11:19;;;;;;;40.00;13.20;;;;;;;4.83;100.00;101753.88;6158282;23;20183;-74
2021/11/06 02:13:46;;;;;;;39.50;12.93;;;;;;;4.77;100.00;101752.06;6158742;23;20191;-73
2021/11/06 02:16:12;;;;;;;38.50;13.20;;;;;;;4.71;100.00;101749.38;6157868;23;20201;-72
2021/11/06 02:18:39;;;;;;;34.60;12.57;;;;;;;4.64;100.00;101739.78;6158636;23;20181;-73
2021/11/06 02:21:08;;;;;;;39.97;11.90;;;;;;;4.56;100.00;101747.41;6147958;23;20185;-74
2021/11/06 02:23:35;;;;;;;28.17;11.20;;;;;;;4.48;100.00;101739.53;6157976;23;20183;-74
2021/11/06 02:26:02;;;;;;;27.87;10.60;;;;;;;4.44;100.00;101760.97;6147561;23;20213;-74
2021/11/06 02:28:28;;;;;;;31.13;12.30;;;;;;;4.41;100.00;101760.06;6157982;23;20205;-73
2021/11/06 02:30:55;;;;;;;33.20;12.17;;;;;;;4.49;100.00;101759.34;6147181;23;20179;-73
2021/11/06 02:33:22;;;;;;;32.50;12.33;;;;;;;4.50;100.00;101761.09;6157694;23;20173;-73
2021/11/06 02:35:48;;;;;;;30.90;11.47;;;;;;;4.52;100.00;101755.94;6148182;23;20204;-73
2021/11/06 02:38:16;;;;;;;30.87;11.87;;;;;;;4.53;100.00;101766.28;6158056;23;20187;-74
2021/11/06 02:40:42;;;;;;;36.20;11.23;;;;;;;4.52;100.00;101767.16;6157877;23;20169;-74
2021/11/06 02:43:10;;;;;;;36.23;11.70;;;;;;;4.52;100.00;101764.56;6147861;23;20189;-73
2021/11/06 02:45:37;;;;;;;29.80;11.10;;;;;;;4.49;100.00;101768.81;6157685;23;20243;-73
2021/11/06 02:48:05;;;;;;;35.07;12.20;;;;;;;4.47;100.00;101762.75;6157751;23;20588;-73
2021/11/06 02:50:32;;;;;;;33.77;12.40;;;;;;;4.45;100.00;101761.84;6158112;23;20172;-73
2021/11/06 02:52:59;;;;;;;29.73;11.37;;;;;;;4.43;100.00;101766.13;6157606;23;20180;-73
2021/11/06 02:55:28;;;;;;;33.80;11.47;;;;;;;4.33;100.00;101759.94;6157869;23;20196;-74
2021/11/06 02:57:54;;;;;;;32.40;11.43;;;;;;;4.29;100.00;101753.84;6157541;23;20173;-73
2021/11/06 03:00:22;;;;;;;28.27;11.30;;;;;;;4.27;100.00;101746.91;6157734;23;20181;-73
2021/11/06 03:02:48;;;;;;;30.43;11.50;;;;;;;4.26;100.00;101755.50;6157732;23;20566;-73
2021/11/06 03:05:16;;;;;;;28.23;10.83;;;;;;;4.26;100.00;101756.38;6157272;23;20210;-74
2021/11/06 03:07:43;;;;;;;31.80;11.50;;;;;;;4.23;100.00;101756.31;6156709;23;20621;-74
2021/11/06 03:10:12;;;;;;;33.17;11.40;;;;;;;4.19;100.00;101759.69;6157528;23;20184;-72
2021/11/06 03:12:40;;;;;;;29.13;10.63;;;;;;;4.18;100.00;101766.53;6121969;23;20177;-73
2021/11/06 03:15:08;;;;;;;28.53;10.80;;;;;;;4.18;100.00;101763.09;6147852;23;20193;-73
2021/11/06 03:17:34;;;;;;;29.43;11.10;;;;;;;4.18;100.00;101774.28;6157682;23;20508;-73
2021/11/06 03:20:00;;;;;;;25.90;10.33;;;;;;;4.18;100.00;101765.69;6147415;23;20646;-73
2021/11/06 03:22:27;;;;;;;29.27;11.00;;;;;;;4.17;100.00;101769.13;6157540;23;20183;-73
2021/11/06 03:24:53;;;;;;;30.83;10.93;;;;;;;4.16;100.00;101769.94;6157563;23;20203;-73
2021/11/06 03:27:19;;;;;;;27.43;10.67;;;;;;;4.12;100.00;101766.44;6157992;23;20173;-74
2021/11/06 03:29:47;;;;;;;33.60;11.93;;;;;;;4.08;100.00;101769.81;6157477;23;20177;-72
2021/11/06 03:32:14;;;;;;;32.03;11.20;;;;;;;4.14;100.00;101771.63;6157674;23;20172;-73
2021/11/06 03:34:40;;;;;;;29.43;12.13;;;;;;;4.16;100.00;101772.53;6157150;23;20197;-73
2021/11/06 03:37:06;;;;;;;33.37;11.37;;;;;;;4.14;100.00;101769.06;6157251;23;20188;-73
2021/11/06 03:39:33;;;;;;;34.73;11.37;;;;;;;4.19;100.00;101764.84;6156933;23;20195;-73
2021/11/06 03:42:00;;;;;;;37.63;11.53;;;;;;;4.15;100.00;101769.09;6156532;23;20188;-74
2021/11/06 03:44:26;;;;;;;36.47;12.20;;;;;;;4.15;100.00;101769.09;6157156;23;20196;-73
2021/11/06 03:46:54;;;;;;;38.17;11.93;;;;;;;4.14;100.00;101772.50;6121400;23;20654;-72
2021/11/06 03:49:21;;;;;;;35.13;11.83;;;;;;;4.15;100.00;101781.09;6157176;23;20176;-74
2021/11/06 03:51:47;;;;;;;30.50;12.07;;;;;;;4.16;100.00;101781.13;6157482;23;20177;-73
2021/11/06 03:54:14;;;;;;;36.10;12.90;;;;;;;4.16;100.00;101785.44;6156781;23;20181;-73
2021/11/06 03:56:41;;;;;;;38.07;12.23;;;;;;;4.14;100.00;101787.13;6147651;23;20187;-74
2021/11/06 03:59:08;;;;;;;34.30;11.93;;;;;;;4.13;100.00;101782.78;6157339;23;20172;-73
2021/11/06 04:01:35;;;;;;;32.43;11.53;;;;;;;4.16;100.00;101790.59;6147515;23;20176;-73
2021/11/06 04:04:03;;;;;;;31.90;11.70;;;;;;;4.13;100.00;101783.69;6157443;23;20181;-73
2021/11/06 04:06:29;;;;;;;37.40;12.37;;;;;;;4.10;100.00;101790.50;6156923;23;20197;-73
2021/11/06 04:08:56;;;;;;;33.67;12.03;;;;;;;4.15;100.00;101792.31;6157041;23;20181;-73
2021/11/06 04:11:23;;;;;;;36.87;11.47;;;;;;;4.15;100.00;101789.75;6157452;23;20211;-73
2021/11/06 04:13:50;;;;;;;33.27;12.23;;;;;;;4.20;100.00;101794.97;6157258;23;20181;-73
2021/11/06 04:16:17;;;;;;;31.40;11.97;;;;;;;4.21;100.00;101788.97;6156627;23;20262;-73
2021/11/06 04:18:43;;;;;;;37.50;12.07;;;;;;;4.19;100.00;101790.66;6157422;23;20176;-73
2021/11/06 04:21:11;;;;;;;37.17;11.23;;;;;;;4.13;100.00;101793.13;6157160;23;20181;-73
2021/11/06 04:23:38;;;;;;;33.67;12.23;;;;;;;4.11;100.00;101790.50;6156988;23;20177;-73
2021/11/06 04:26:04;;;;;;;36.20;11.93;;;;;;;4.11;100.00;101790.50;6147156;23;20551;-73
2021/11/06 04:28:31;;;;;;;32.90;11.37;;;;;;;4.10;100.00;101787.91;6157056;23;20642;-73
2021/11/06 04:30:57;;;;;;;30.10;11.07;;;;;;;4.12;100.00;101800.00;6156930;23;20908;-73
2021/11/06 04:33:24;;;;;;;33.10;11.50;;;;;;;4.15;100.00;101792.31;6157153;23;20240;-73
2021/11/06 04:35:50;;;;;;;33.77;11.80;;;;;;;4.25;100.00;101795.06;6157065;23;20599;-73
2021/11/06 04:38:18;;;;;;;36.07;12.23;;;;;;;4.27;100.00;101801.97;6156713;23;20590;-73
2021/11/06 04:40:44;;;;;;;33.73;11.40;;;;;;;4.30;100.00;101798.59;6146953;23;20188;-73
2021/11/06 04:43:11;;;;;;;38.50;11.60;;;;;;;4.34;100.00;101790.97;6157562;23;20176;-73
2021/11/06 04:45:37;;;;;;;32.03;11.30;;;;;;;4.42;100.00;101797.97;6147125;23;20203;-73
2021/11/06 04:48:06;;;;;;;42.53;12.43;;;;;;;4.45;100.00;101803.16;6157372;23;20169;-74
2021/11/06 04:50:33;;;;;;;36.53;12.50;;;;;;;4.50;100.00;101806.69;6157187;23;20174;-73
2021/11/06 04:52:59;;;;;;;46.80;12.47;;;;;;;4.51;100.00;101809.31;6157308;23;20169;-73
2021/11/06 04:55:27;;;;;;;42.87;12.47;;;;;;;4.58;100.00;101806.84;6158375;23;20196;-73
2021/11/06 04:57:53;;;;;;;41.17;13.47;;;;;;;4.61;100.00;101805.19;6159369;23;20263;-72
2021/11/06 05:00:20;;;;;;;34.37;12.10;;;;;;;4.66;100.00;101800.09;6158865;23;20189;-73
2021/11/06 05:02:46;;;;;;;36.80;12.60;;;;;;;4.70;100.00;101804.47;6149377;23;20191;-73
2021/11/06 05:05:13;;;;;;;40.50;13.50;;;;;;;4.73;100.00;101801.94;6158613;23;20193;-74
2021/11/06 05:07:40;;;;;;;34.97;12.17;;;;;;;4.75;100.00;101800.25;6159535;23;20188;-74
2021/11/06 05:10:07;;;;;;;35.93;12.63;;;;;;;4.78;100.00;101805.47;6158958;23;20263;-74
2021/11/06 05:12:35;;;;;;;44.70;12.77;;;;;;;4.82;100.00;101811.53;6159444;23;20177;-73
2021/11/06 05:15:02;;;;;;;34.00;11.50;;;;;;;4.83;100.00;101816.75;6158866;23;20195;-74
2021/11/06 05:17:28;;;;;;;43.07;12.90;;;;;;;4.85;100.00;101815.03;6159240;23;20628;-73
2021/11/06 05:19:56;;;;;;;41.30;12.47;;;;;;;4.88;100.00;101815.09;6158965;23;20181;-73
2021/11/06 05:22:23;;;;;;;37.90;12.33;;;;;;;4.91;100.00;101814.31;6159313;23;20187;-73
2021/11/06 05:24:49;;;;;;;29.20;11.67;;;;;;;4.91;100.00;101810.00;6159461;23;20219;-74
2021/11/06 05:27:16;;;;;;;33.37;11.53;;;;;;;4.92;100.00;101824.66;6159417;23;20208;-73
2021/11/06 05:29:43;;;;;;;32.53;11.13;;;;;;;4.96;100.00;101812.66;6160044;23;20652;-73
2021/11/06 05:32:10;;;;;;;31.63;11.60;;;;;;;4.97;100.00;101816.13;6159325;23;20179;-74
2021/11/06 05:34:36;;;;;;;26.23;11.43;;;;;;;4.99;100.00;101811.84;6159475;23;20216;-74
2021/11/06 05:37:04;;;;;;;31.70;11.93;;;;;;;5.00;100.00;101811.00;6159710;23;20291;-74
2021/11/06 05:39:30;;;;;;;30.57;11.43;;;;;;;5.02;100.00;101807.56;6149263;23;20208;-74
2021/11/06 05:41:57;;;;;;;27.13;10.37;;;;;;;5.03;100.00;101811.03;6158609;23;20176;-74
2021/11/06 05:44:23;;;;;;;31.77;11.27;;;;;;;5.03;100.00;101811.91;6158795;23;20930;-73
2021/11/06 05:46:51;;;;;;;27.53;11.53;;;;;;;5.04;100.00;101817.94;6149303;23;20196;-73
2021/11/06 05:49:17;;;;;;;25.80;10.57;;;;;;;5.05;100.00;101814.53;6159234;23;20177;-73
2021/11/06 05:51:44;;;;;;;25.67;10.30;;;;;;;5.07;100.00;101820.59;6160046;23;20215;-73
2021/11/06 05:54:10;;;;;;;27.87;10.67;;;;;;;5.08;100.00;101815.44;6159383;23;20183;-74
2021/11/06 05:56:36;;;;;;;29.67;10.93;;;;;;;5.10;100.00;101821.50;6159284;23;20181;-74
2021/11/06 05:59:03;;;;;;;30.03;10.97;;;;;;;5.11;100.00;101818.06;6159341;23;20264;-74
2021/11/06 06:01:29;;;;;;;24.93;10.90;;;;;;;5.11;100.00;101814.59;6158986;23;20187;-73
2021/11/06 06:03:57;;;;;;;26.23;10.03;;;;;;;5.15;100.00;101820.69;6159134;23;20184;-74
2021/11/06 06:06:23;;;;;;;26.87;10.60;;;;;;;5.14;100.00;101817.25;6158908;23;20197;-73
2021/11/06 06:08:50;;;;;;;36.70;10.17;;;;;;;5.16;100.00;101817.28;6159488;23;20184;-73
2021/11/06 06:11:16;;;;;;;22.87;9.60;;;;;;;5.18;100.00;101819.03;6158920;23;20238;-74
2021/11/06 06:13:44;;;;;;;26.10;10.23;;;;;;;5.19;100.00;101825.06;6159048;23;20183;-74
2021/11/06 06:16:10;;;;;;;34.23;10.40;;;;;;;5.20;100.00;101834.56;6148895;23;20193;-73
2021/11/06 06:18:36;;;;;;;21.47;9.13;;;;;;;5.22;100.00;101832.88;6158945;23;20177;-74
2021/11/06 06:21:04;;;;;;;24.90;9.90;;;;;;;5.24;100.00;101828.59;6159143;23;20617;-74
2021/11/06 06:23:30;;;;;;;31.13;10.37;;;;;;;5.25;100.00;101831.19;6158940;23;20630;-73
2021/11/06 06:25:57;;;;;;;25.47;10.20;;;;;;;5.26;100.00;101822.59;6158214;23;20193;-74
2021/11/06 06:28:23;;;;;;;27.07;9.03;;;;;;;5.28;100.00;101828.66;6148606;23;20177;-73
2021/11/06 06:30:50;;;;;;;23.40;9.50;;;;;;;5.29;100.00;101825.25;6158509;23;20181;-74
2021/11/06 06:33:16;;;;;;;23.23;9.40;;;;;;;5.31;100.00;101820.06;6158379;23;20616;-73
2021/11/06 06:35:42;;;;;;;21.53;9.37;;;;;;;5.35;100.00;101821.88;6158031;23;20291;-74
2021/11/06 06:38:10;;;;;;;21.13;9.00;;;;;;;5.38;100.00;101819.34;6148062;23;20247;-74
2021/11/06 06:40:37;;;;;;;21.97;8.97;;;;;;;5.41;100.00;101827.13;6157964;23;20412;-74
2021/11/06 06:43:03;;;;;;;25.70;9.33;;;;;;;5.45;100.00;101833.19;6158170;23;20179;-73
2021/11/06 06:45:30;;;;;;;20.33;8.43;;;;;;;5.46;100.00;101830.63;6158107;23;20291;-74
2021/11/06 06:47:56;;;;;;;20.47;9.33;;;;;;;5.48;100.00;101841.00;6158484;23;20271;-74
2021/11/06 06:50:23;;;;;;;22.07;7.57;;;;;;;5.50;100.00;101845.38;6158339;23;20208;-74
2021/11/06 06:52:51;;;;;;;21.83;8.73;;;;;;;5.52;100.00;101853.13;6148083;23;20212;-74
2021/11/06 06:55:18;;;;;;;20.80;7.90;;;;;;;5.54;100.00;101850.56;6157782;23;20193;-74
2021/11/06 06:57:45;;;;;;;17.67;7.77;;;;;;;5.55;100.00;101848.00;6148253;23;20643;-74
2021/11/06 07:00:13;;;;;;;17.60;7.97;;;;;;;5.57;100.00;101856.66;6157805;23;20681;-73
2021/11/06 07:02:40;;;;;;;18.33;8.17;;;;;;;5.59;100.00;101860.13;6157815;23;20684;-73
2021/11/06 07:05:07;;;;;;;19.27;7.73;;;;;;;5.60;100.00;101861.88;6157585;23;20197;-74
2021/11/06 07:07:33;;;;;;;12.87;6.87;;;;;;;5.63;100.00;101863.66;6157909;23;20268;-74
2021/11/06 07:10:00;;;;;;;16.77;7.87;;;;;;;5.62;100.00;101851.56;6157594;23;20188;-73
2021/11/06 07:12:29;;;;;;;15.77;6.93;;;;;;;5.67;100.00;101860.25;6147671;23;20512;-74
2021/11/06 07:14:56;;;;;;;20.17;7.60;;;;;;;5.68;100.00;101862.88;6157187;23;20197;-73
2021/11/06 07:17:23;;;;;;;15.47;7.07;;;;;;;5.69;100.00;101859.41;6157557;23;20173;-74
2021/11/06 07:19:49;;;;;;;15.27;7.17;;;;;;;5.75;100.00;101866.41;6157676;23;20389;-74
2021/11/06 07:22:16;;;;;;;12.47;6.93;;;;;;;5.75;100.00;101876.78;6157949;23;20183;-74
2021/11/06 07:24:42;;;;;;;16.47;6.93;;;;;;;5.78;100.00;101873.34;6157563;23;20540;-73
2021/11/06 07:27:10;;;;;;;13.73;6.50;;;;;;;5.81;100.00;101879.44;6157783;23;20197;-73
2021/11/06 07:29:38;;;;;;;14.20;7.07;;;;;;;5.87;100.00;101878.63;6157087;23;20173;-73
2021/11/06 07:32:05;;;;;;;17.17;6.70;;;;;;;5.91;100.00;101877.84;6157132;23;20624;-74
2021/11/06 07:34:31;;;;;;;12.10;7.00;;;;;;;5.94;100.00;101884.78;6147338;23;20204;-73
2021/11/06 07:36:58;;;;;;;14.03;7.27;;;;;;;5.97;100.00;101897.78;6157350;23;20259;-74
2021/11/06 07:39:26;;;;;;;11.87;6.60;;;;;;;6.02;100.00;101893.56;6156254;23;20478;-74
2021/11/06 07:41:52;;;;;;;14.70;6.47;;;;;;;6.07;100.00;101899.66;6156672;23;20180;-74
2021/11/06 07:44:19;;;;;;;15.97;6.83;;;;;;;6.13;100.00;101897.13;6155966;23;20187;-74
2021/11/06 07:46:47;;;;;;;13.53;6.33;;;;;;;6.17;100.00;101904.06;6156522;23;20199;-74
2021/11/06 07:49:13;;;;;;;13.27;6.23;;;;;;;6.21;100.00;101905.00;6156284;23;20181;-74
2021/11/06 07:51:40;;;;;;;12.60;6.20;;;;;;;6.24;100.00;101907.63;6156897;23;20187;-74
2021/11/06 07:54:06;;;;;;;10.90;6.17;;;;;;;6.27;100.00;101901.63;6155702;23;20180;-74
2021/11/06 07:56:34;;;;;;;9.33;5.30;;;;;;;6.32;100.00;101899.97;6156366;23;20496;-74
2021/11/06 07:59:01;;;;;;;11.30;6.43;;;;;;;6.34;100.00;101906.03;6156219;23;20173;-74
2021/11/06 08:01:27;;;;;;;9.67;6.63;;;;;;;6.39;100.00;101902.63;6156278;23;20179;-74
2021/11/06 08:03:55;;;;;;;12.03;6.60;;;;;;;6.42;100.00;101901.78;6156548;23;20614;-74
2021/11/06 08:06:22;;;;;;;12.20;7.73;;;;;;;6.46;100.00;101907.91;6155955;23;20255;-74
2021/11/06 08:08:48;;;;;;;12.17;7.33;;;;;;;6.47;100.00;101902.69;6156528;23;20184;-74
2021/11/06 08:11:15;;;;;;;12.13;7.53;;;;;;;6.51;100.00;101894.13;6156084;23;20177;-74
2021/11/06 08:13:41;;;;;;;8.90;6.13;;;;;;;6.55;100.00;101893.31;6156862;23;20173;-74
2021/11/06 08:16:07;;;;;;;12.33;6.13;;;;;;;6.60;100.00;101901.13;6156002;23;20189;-74
2021/11/06 08:18:34;;;;;;;11.43;6.07;;;;;;;6.65;100.00;101894.28;6155416;23;20179;-74
2021/11/06 08:21:02;;;;;;;9.50;6.20;;;;;;;6.73;100.00;101891.75;6119354;23;20528;-74
2021/11/06 08:23:28;;;;;;;12.43;5.93;;;;;;;6.78;100.00;101900.44;6156485;23;20183;-74
2021/11/06 08:25:55;;;;;;;10.90;6.03;;;;;;;6.86;100.00;101895.31;6155368;23;20223;-74
2021/11/06 08:28:22;;;;;;;12.83;6.27;;;;;;;6.91;100.00;101889.34;6156989;23;20183;-74
2021/11/06 08:30:49;;;;;;;15.77;7.83;;;;;;;7.03;100.00;101883.38;6157678;23;20181;-74
2021/11/06 08:33:15;;;;;;;20.60;10.77;;;;;;;7.12;100.00;101882.59;6158220;23;20179;-74
2021/11/06 08:35:41;;;;;;;12.40;6.33;;;;;;;7.19;100.00;101880.09;6157440;23;20196;-74
2021/11/06 08:38:11;;;;;;;16.20;7.77;;;;;;;7.28;100.00;101887.06;6155446;23;20180;-74
2021/11/06 08:40:38;;;;;;;12.77;8.03;;;;;;;7.41;100.00;101888.03;6157285;23;20573;-74
2021/11/06 08:43:04;;;;;;;12.03;7.30;;;;;;;7.44;100.00;101880.25;6147108;23;20232;-74
2021/11/06 08:45:31;;;;;;;13.30;6.93;;;;;;;7.40;100.00;101888.88;6154879;23;20196;-74
2021/11/06 08:47:57;;;;;;;9.30;6.40;;;;;;;7.45;100.00;101878.53;6156569;23;20193;-74
2021/11/06 08:50:27;;;;;;;12.93;6.80;;;;;;;7.49;100.00;101885.47;6155315;23;20635;-74
2021/11/06 08:52:56;;;;;;;13.63;7.10;;;;;;;7.56;100.00;101887.25;6156784;23;20182;-74
2021/11/06 08:55:25;;;;;;;10.70;6.80;;;;;;;7.65;100.00;101884.72;6157222;23;20253;-74
2021/11/06 08:57:51;;;;;;;11.63;6.40;;;;;;;7.67;100.00;101895.09;6119696;23;20178;-74
2021/11/06 09:00:26;;;;;;;12.37;7.30;;;;;;;7.68;100.00;101894.25;6156414;23;20180;-74
2021/11/06 09:02:53;;;;;;;10.70;7.53;;;;;;;7.72;100.00;101894.28;6157550;23;20228;-74
2021/11/06 09:05:19;;;;;;;12.23;7.13;;;;;;;7.78;100.00;101890.84;6157313;23;20200;-74
2021/11/06 09:07:47;;;;;;;9.93;6.20;;;;;;;7.79;100.00;101897.75;6157889;23;20682;-74
2021/11/06 09:10:17;;;;;;;8.23;6.10;;;;;;;7.89;100.00;101898.69;6157389;23;20867;-74
2021/11/06 09:12:46;;;;;;;8.90;5.30;;;;;;;8.01;100.00;101898.75;6157773;23;20228;-74
2021/11/06 09:15:12;;;;;;;9.90;6.00;;;;;;;8.08;100.00;101899.66;6157096;23;20946;-74
2021/11/06 09:17:39;;;;;;;9.67;6.50;;;;;;;8.02;100.00;101908.28;6156336;23;20177;-74
2021/11/06 09:20:07;;;;;;;14.10;7.40;;;;;;;8.02;100.00;101910.00;6156627;23;20185;-74
2021/11/06 09:22:33;;;;;;;8.63;5.93;;;;;;;8.01;100.00;101914.34;6156176;23;20181;-74
2021/11/06 09:25:00;;;;;;;8.83;6.17;;;;;;;8.01;100.00;101913.47;6157391;23;20220;-74
2021/11/06 09:27:26;;;;;;;8.57;5.43;;;;;;;7.96;100.00;101911.72;6157547;23;20250;-74
2021/11/06 09:29:54;;;;;;;8.70;5.40;;;;;;;7.96;100.00;101916.03;6157464;23;20176;-74
2021/11/06 09:32:21;;;;;;;10.53;6.27;;;;;;;7.92;100.00;101920.34;6157425;23;20183;-74
2021/11/06 09:34:48;;;;;;;8.73;5.83;;;;;;;7.99;100.00;101920.41;6157426;23;20199;-74
2021/11/06 09:37:15;;;;;;;11.97;5.70;;;;;;;8.04;100.00;101916.06;6147142;23;20632;-74
2021/11/06 09:39:41;;;;;;;8.80;5.67;;;;;;;8.15;100.00;101917.88;6156731;23;20185;-74
2021/11/06 09:42:09;;;;;;;9.90;5.90;;;;;;;8.20;100.00;101924.84;6157192;23;20183;-74
2021/11/06 09:44:36;;;;;;;11.17;6.27;;;;;;;8.26;100.00;101915.31;6157308;23;20198;-74
2021/11/06 09:47:09;;;;;;;9.07;5.90;;;;;;;8.35;100.00;101924.88;6157353;23;20207;-74
2021/11/06 09:49:35;;;;;;;9.97;5.93;;;;;;;8.36;100.00;101921.44;6157425;23;20180;-74
2021/11/06 09:52:02;;;;;;;10.50;6.17;;;;;;;8.39;100.00;101920.56;6157590;23;20180;-74
2021/11/06 09:54:28;;;;;;;7.97;5.90;;;;;;;8.42;100.00;101917.97;6147145;23;20566;-74
2021/11/06 09:56:55;;;;;;;8.10;5.73;;;;;;;8.45;100.00;101918.88;6147593;23;20187;-74
2021/11/06 09:59:21;;;;;;;10.40;6.00;;;;;;;8.46;100.00;101912.84;6156709;23;20176;-74
2021/11/06 10:01:47;;;;;;;13.50;6.00;;;;;;;8.50;100.00;101917.16;6146564;23;20187;-74
2021/11/06 10:04:15;;;;;;;13.17;5.53;;;;;;;8.51;100.00;101915.44;6156547;23;20177;-74
2021/11/06 10:06:45;;;;;;;9.17;5.63;;;;;;;8.46;100.00;101914.53;6155641;23;20196;-74
2021/11/06 10:09:12;;;;;;;9.10;5.47;;;;;;;8.49;100.00;101902.41;6143355;23;20203;-74
2021/11/06 10:11:44;;;;;;;9.30;5.17;;;;;;;8.60;100.00;101906.78;6156979;23;20658;-74
2021/11/06 10:14:14;;;;;;;9.07;6.10;;;;;;;8.67;100.00;101899.03;6156509;23;20193;-74
2021/11/06 10:16:43;;;;;;;7.17;5.23;;;;;;;8.65;100.00;101903.38;6121009;23;20189;-74
2021/11/06 10:19:12;;;;;;;9.27;5.80;;;;;;;8.68;100.00;101903.34;6156075;23;20185;-74
2021/11/06 10:21:42;;;;;;;6.93;5.20;;;;;;;8.66;100.00;101899.88;6157364;23;20185;-74
2021/11/06 10:24:10;;;;;;;6.43;5.20;;;;;;;8.64;100.00;101904.22;6155785;23;20181;-74
2021/11/06 10:26:37;;;;;;;8.70;6.40;;;;;;;8.62;100.00;101905.94;6157503;23;20407;-74
2021/11/06 10:29:07;;;;;;;6.43;5.17;;;;;;;8.64;100.00;101901.63;6156377;23;20176;-74
2021/11/06 10:31:35;;;;;;;9.90;5.80;;;;;;;8.71;100.00;101907.69;6156133;23;20184;-74
2021/11/06 10:34:12;;;;;;;7.77;6.07;;;;;;;8.78;100.00;101913.78;6156034;23;20179;-74
2021/11/06 10:36:40;;;;;;;7.67;5.30;;;;;;;8.83;100.00;101901.63;6156245;23;20550;-74
2021/11/06 10:39:10;;;;;;;9.00;5.20;;;;;;;8.82;100.00;101903.38;6149087;23;20244;-72
2021/11/06 10:41:40;;;;;;;9.23;5.33;;;;;;;8.78;100.00;101909.44;6165587;23;20281;-72
2021/11/06 10:44:08;;;;;;;6.33;5.00;;;;;;;8.80;100.00;101905.09;6166322;23;20183;-73
2021/11/06 10:46:36;;;;;;;9.60;5.43;;;;;;;8.79;100.00;101905.09;6164520;23;20196;-72
2021/11/06 10:49:04;;;;;;;6.57;4.90;;;;;;;8.84;100.00;101899.03;6155554;23;20180;-72
2021/11/06 10:51:31;;;;;;;6.73;4.70;;;;;;;8.80;100.00;101894.72;6167439;23;20185;-73
2021/11/06 10:54:01;;;;;;;7.00;4.67;;;;;;;8.70;100.00;101895.56;6166417;23;20569;-73
2021/11/06 10:56:35;;;;;;;6.37;4.77;;;;;;;8.67;100.00;101898.13;6165827;23;20304;-73
2021/11/06 10:59:07;;;;;;;6.97;5.37;;;;;;;8.68;100.00;101892.09;6130517;23;20183;-72
2021/11/06 11:01:35;;;;;;;6.40;4.73;;;;;;;8.72;100.00;101896.41;6130101;23;20225;-72
2021/11/06 11:04:05;;;;;;;6.90;5.17;;;;;;;8.83;100.00;101888.63;6167977;23;20642;-72
2021/11/06 11:06:38;;;;;;;8.97;4.63;;;;;;;8.82;100.00;101885.16;6165769;23;20179;-72
2021/11/06 11:09:10;;;;;;;7.47;4.83;;;;;;;8.82;100.00;101882.56;6168142;23;20186;-72
2021/11/06 11:11:36;;;;;;;7.03;5.10;;;;;;;8.86;100.00;101880.84;6167861;23;20200;-73
2021/11/06 11:14:06;;;;;;;7.60;4.53;;;;;;;8.96;98.85;101885.19;6147822;23;20505;-73